Laurens, SC (29360)

5:53 AM EDT on August 29, 2016 (GMT -0400)
7 Oaks | | Change Station

Elev 699 ft 34.49 °N, 82.11 °W | Updated 4 seconds ago

Overcast
Overcast
73.4 °F
Feels Like 74 °F
N
1.3
Wind Variable Wind from ENE
Gusts 2.5 mph

Today
High -- | Low -- °F
--% Chance of Precip.
Yesterday
High -- | Low -- °F
Precip. -- in
Pressure 30.12 in
Visibility 10.0 miles
Clouds Scattered Clouds 3600 ft
Overcast 4900 ft
Heat Index 74 °F
Dew Point 67 °F
Humidity 79%
Rainfall 0.00 in
Snow Depth Not available.
6:59 AM 7:57 PM
Waning Crescent, 9% visible
METAR KLUX 290935Z AUTO 03003KT 10SM -RA SCT036 OVC049 22/19 A3012 RMK AO2
Pressure 30.12 in
Visibility 10.0 miles
Clouds Scattered Clouds 3600 ft
Overcast 4900 ft
Heat Index 74 °F
Dew Point 67 °F
Humidity 79%
Rainfall 0.00 in
Snow Depth Not available.
6:59 AM 7:57 PM
Waning Crescent, 9% visible
METAR KLUX 290935Z AUTO 03003KT 10SM -RA SCT036 OVC049 22/19 A3012 RMK AO2
The area of storminess, previously known as Invest 99-L that we were monitoring for days, finally developed into Tropical Depression Nine near the Florida Keys on Sunday evening.

There remains a large degree of uncertainty around how much this system will strengthen once it gets into the southeast Gulf of Mexico. For now, the clockwise flow around upper-level high pressure over the eastern United States will steer Tropical Depression Nine west-northwest toward the Gulf. That high will weaken by Tuesday, allowing this system to move more north, and then eventually northeast the next several days on a path toward the Florida Gulf Coast.

10-Day Weather Forecast

Almanac

Astronomy

Aug. 29, 2016 Rise Set
Actual Time
Civil Twilight
Nautical Twilight
Astronomical Twilight
Moon
Length of Visible Light
Length of Day
Tomorrow will be .
, % of the Moon is Illuminated

Today's Extremes

State Highs State Lows

Community

WunderPhotos

Upload Photos

1,935,798 photos uploaded!

WunderBlog® & News

Nearby

Air Quality

  Air Quality AQ Index Pollutant
Not available.

Snow Depth

Station Depth Elevation

Earthquake Activity

City Distance Mag. Time & Date
Minimum magnitude displayed is 2.5.

Coastal Water Temperatures

Place Temperature

Stations

Nearby Weather Stations

Station Location Temp. Windchill Dew Point Humidity Wind Precip. Elev Updated Type
                   

Watches & Warnings

There are currently no watches in effect.